createdAt,value
2022-12-06T00:02:17.875Z,102047.22
2022-12-06T00:04:49.617Z,102054.38
2022-12-06T00:07:22.016Z,102053.53
2022-12-06T00:09:51.845Z,102054.47
2022-12-06T00:12:21.673Z,102056.50
2022-12-06T00:14:51.471Z,102050.56
2022-12-06T00:17:21.272Z,102055.91
2022-12-06T00:19:51.139Z,102055.81
2022-12-06T00:22:23.557Z,102063.56
2022-12-06T00:24:53.349Z,102060.47
2022-12-06T00:27:23.164Z,102054.94
2022-12-06T00:29:52.991Z,102063.38
2022-12-06T00:32:22.861Z,102051.78
2022-12-06T00:34:52.688Z,102054.28
2022-12-06T00:37:25.087Z,102051.47
2022-12-06T00:39:54.912Z,102047.84
2022-12-06T00:42:24.709Z,102042.28
2022-12-06T00:44:54.539Z,102036.69
2022-12-06T00:47:24.376Z,102042.16
2022-12-06T00:49:54.294Z,102041.38
2022-12-06T00:52:26.750Z,102037.06
2022-12-06T00:54:56.558Z,102045.72
2022-12-06T00:57:26.397Z,102035.25
2022-12-06T00:59:56.211Z,102032.75
2022-12-06T01:02:26.024Z,102034.78
2022-12-06T01:04:55.845Z,102031.34
2022-12-06T01:07:28.273Z,102030.66
2022-12-06T01:09:58.244Z,102033.72
2022-12-06T01:12:28.207Z,102044.81
2022-12-06T01:14:57.859Z,102041.50
2022-12-06T01:17:27.577Z,102040.81
2022-12-06T01:19:57.427Z,102041.97
2022-12-06T01:22:29.864Z,102045.59
2022-12-06T01:24:59.532Z,102038.53
2022-12-06T01:27:29.909Z,102039.13
2022-12-06T01:30:00.022Z,102044.13
2022-12-06T01:32:32.029Z,102038.81
2022-12-06T01:35:01.697Z,102047.44
2022-12-06T01:37:34.039Z,102047.34
2022-12-06T01:40:03.793Z,102047.00
2022-12-06T01:42:33.497Z,102042.81
2022-12-06T01:45:03.284Z,102042.69
2022-12-06T01:47:36.275Z,102034.63
2022-12-06T01:50:12.490Z,102032.03
2022-12-06T01:52:52.694Z,102028.38
2022-12-06T01:55:24.218Z,102025.78
2022-12-06T01:57:55.851Z,102018.97
2022-12-06T02:00:25.800Z,102020.75
2022-12-06T02:02:57.711Z,102012.03
2022-12-06T02:05:28.822Z,102014.50
2022-12-06T02:08:03.175Z,102014.84
2022-12-06T02:10:33.698Z,102006.44
2022-12-06T02:13:03.444Z,102010.06
2022-12-06T02:15:43.355Z,102008.56
2022-12-06T02:18:16.940Z,102009.38
2022-12-06T02:20:53.605Z,102003.81
2022-12-06T02:24:02.583Z,101995.47
2022-12-06T02:26:40.500Z,101995.94
2022-12-06T02:29:48.059Z,102001.72
2022-12-06T02:32:24.184Z,102005.47
2022-12-06T02:34:59.087Z,102009.81
2022-12-06T02:37:34.104Z,102006.94
2022-12-06T02:40:09.147Z,102000.94
2022-12-06T02:42:44.772Z,102001.63
2022-12-06T02:45:18.657Z,101997.88
2022-12-06T02:47:53.035Z,101998.78
2022-12-06T02:50:28.159Z,101989.16
2022-12-06T02:53:02.187Z,101984.81
2022-12-06T02:55:33.234Z,101980.50
2022-12-06T02:58:02.948Z,101983.72
2022-12-06T03:00:37.217Z,101977.59
2022-12-06T03:03:42.884Z,101982.00
2022-12-06T03:06:50.611Z,101983.81
2022-12-06T03:09:50.679Z,101987.44
2022-12-06T03:12:30.370Z,101979.81
2022-12-06T03:15:09.204Z,101986.88
2022-12-06T03:17:44.211Z,101980.97
2022-12-06T03:20:21.912Z,101984.59
2022-12-06T03:22:56.755Z,101983.81
2022-12-06T03:25:27.393Z,101989.03
2022-12-06T03:28:00.083Z,101985.84
2022-12-06T03:30:33.531Z,101988.56
2022-12-06T03:33:04.589Z,101990.38
2022-12-06T03:35:37.978Z,101989.56
2022-12-06T03:38:13.041Z,101985.38
2022-12-06T03:40:47.652Z,101983.66
2022-12-06T03:43:18.128Z,101988.88
2022-12-06T03:45:52.505Z,101974.13
2022-12-06T03:48:25.543Z,101968.00
2022-12-06T03:51:02.565Z,101969.81
2022-12-06T03:53:32.251Z,101970.50
2022-12-06T03:56:02.520Z,101961.88
2022-12-06T03:58:32.401Z,101967.28
2022-12-06T04:01:09.532Z,101962.97
2022-12-06T04:03:39.288Z,101959.66
2022-12-06T04:06:13.396Z,101961.59
2022-12-06T04:08:43.103Z,101963.50
2022-12-06T04:11:12.843Z,101961.00
2022-12-06T04:13:42.952Z,101961.13
2022-12-06T04:16:24.997Z,101959.31
2022-12-06T04:18:54.789Z,101960.19
2022-12-06T04:21:39.493Z,101959.31
2022-12-06T04:24:09.554Z,101958.53
2022-12-06T04:26:39.267Z,101961.34
2022-12-06T04:29:21.356Z,101963.81
2022-12-06T04:32:06.211Z,101950.69
2022-12-06T04:34:48.297Z,101957.50
2022-12-06T04:37:32.967Z,101952.28
2022-12-06T04:40:02.957Z,101954.06
2022-12-06T04:42:45.289Z,101948.06
2022-12-06T04:45:15.355Z,101937.63
2022-12-06T04:47:45.077Z,101935.91
2022-12-06T04:50:14.762Z,101936.81
2022-12-06T04:52:47.096Z,101934.19
2022-12-06T04:55:16.871Z,101939.53
2022-12-06T04:57:46.685Z,101939.63
2022-12-06T05:00:17.811Z,101942.25
2022-12-06T05:02:47.611Z,101938.41
2022-12-06T05:05:17.501Z,101943.41
2022-12-06T05:07:49.780Z,101942.31
2022-12-06T05:10:19.611Z,101935.88
2022-12-06T05:12:49.270Z,101936.44
2022-12-06T05:15:19.204Z,101935.53
2022-12-06T05:17:48.958Z,101928.50
2022-12-06T05:20:18.882Z,101930.31
2022-12-06T05:22:51.276Z,101923.28
2022-12-06T05:25:20.983Z,101924.19
2022-12-06T05:27:50.677Z,101928.41
2022-12-06T05:30:20.935Z,101925.66
2022-12-06T05:32:56.703Z,101934.19
2022-12-06T05:35:27.007Z,101914.09
2022-12-06T05:37:59.295Z,101912.38
2022-12-06T05:40:28.968Z,101910.00
2022-12-06T05:42:58.625Z,101904.00
2022-12-06T05:45:28.304Z,101908.53
2022-12-06T05:47:57.954Z,101908.63
2022-12-06T05:50:27.642Z,101909.31
2022-12-06T05:53:00.916Z,101911.03
2022-12-06T05:55:31.210Z,101913.75
2022-12-06T05:58:00.886Z,101910.22
2022-12-06T06:00:30.571Z,101906.69
2022-12-06T06:03:00.601Z,101905.81
2022-12-06T06:05:30.460Z,101905.81
2022-12-06T06:08:02.805Z,101907.41
2022-12-06T06:10:32.539Z,101912.63
2022-12-06T06:13:02.271Z,101912.38
2022-12-06T06:15:31.940Z,101901.72
2022-12-06T06:18:01.599Z,101898.78
2022-12-06T06:20:31.495Z,101909.13
2022-12-06T06:23:04.013Z,101907.09
2022-12-06T06:25:33.729Z,101907.69
2022-12-06T06:28:03.498Z,101908.16
2022-12-06T06:30:33.181Z,101910.56
2022-12-06T06:33:02.926Z,101916.34
2022-12-06T06:35:32.700Z,101909.22
2022-12-06T06:38:05.509Z,101914.22
2022-12-06T06:40:35.848Z,101911.28
2022-12-06T06:43:18.627Z,101907.53
2022-12-06T06:45:49.239Z,101905.53
2022-12-06T06:48:18.931Z,101911.44
2022-12-06T06:50:52.615Z,101911.22
2022-12-06T06:53:28.088Z,101910.97
2022-12-06T06:55:58.299Z,101920.16
2022-12-06T06:58:28.548Z,101919.19
2022-12-06T07:00:59.953Z,101914.66
2022-12-06T07:03:30.610Z,101903.97
2022-12-06T07:06:02.247Z,101909.88
2022-12-06T07:08:35.510Z,101903.75
2022-12-06T07:11:05.239Z,101903.63
2022-12-06T07:13:35.503Z,101901.69
2022-12-06T07:16:06.159Z,101905.13
2022-12-06T07:18:36.115Z,101905.94
2022-12-06T07:21:08.713Z,101910.13
2022-12-06T07:23:41.010Z,101916.91
2022-12-06T07:26:13.595Z,101917.72
2022-12-06T07:28:45.065Z,101909.66
2022-12-06T07:31:17.486Z,101910.47
2022-12-06T07:33:48.099Z,101922.59
2022-12-06T07:36:18.700Z,101924.19
2022-12-06T07:38:54.429Z,101917.38
2022-12-06T07:41:38.188Z,101916.56
2022-12-06T07:44:20.425Z,101910.69
2022-12-06T07:46:51.158Z,101915.13
2022-12-06T07:49:21.745Z,101911.69
2022-12-06T07:51:51.764Z,101914.44
2022-12-06T07:54:24.863Z,101917.25
2022-12-06T07:56:56.411Z,101916.44
2022-12-06T07:59:26.183Z,101916.66
2022-12-06T08:01:56.815Z,101914.41
2022-12-06T08:04:28.160Z,101918.16
2022-12-06T08:06:57.895Z,101906.91
2022-12-06T08:09:30.196Z,101911.44
2022-12-06T08:11:59.880Z,101905.44
2022-12-06T08:14:29.726Z,101906.34
2022-12-06T08:16:59.412Z,101906.44
2022-12-06T08:19:29.732Z,101903.06
2022-12-06T08:21:59.523Z,101907.59
2022-12-06T08:24:31.808Z,101901.56
2022-12-06T08:27:01.536Z,101907.66
2022-12-06T08:29:31.201Z,101903.47
2022-12-06T08:32:00.947Z,101904.50
2022-12-06T08:34:30.670Z,101902.78
2022-12-06T08:37:03.282Z,101902.09
2022-12-06T08:39:36.228Z,101905.84
2022-12-06T08:42:07.951Z,101900.84
2022-12-06T08:44:37.643Z,101900.03
2022-12-06T08:47:07.492Z,101896.53
2022-12-06T08:49:37.483Z,101902.56
2022-12-06T08:52:07.599Z,101892.13
2022-12-06T08:54:39.927Z,101890.28
2022-12-06T08:57:09.858Z,101885.75
2022-12-06T08:59:40.513Z,101897.09
2022-12-06T09:02:10.260Z,101893.69
2022-12-06T09:04:40.187Z,101890.41
2022-12-06T09:07:11.910Z,101881.00
2022-12-06T09:09:46.338Z,101891.63
2022-12-06T09:12:16.155Z,101886.63
2022-12-06T09:14:45.847Z,101895.00
2022-12-06T09:17:15.748Z,101891.91
2022-12-06T09:19:45.579Z,101891.53
2022-12-06T09:22:15.239Z,101880.59
2022-12-06T09:24:47.524Z,101887.06
2022-12-06T09:27:17.189Z,101886.50
2022-12-06T09:29:46.886Z,101885.13
2022-12-06T09:32:16.590Z,101888.94
2022-12-06T09:34:46.252Z,101889.97
2022-12-06T09:37:16.824Z,101892.09
2022-12-06T09:39:53.806Z,101895.72
2022-12-06T09:42:48.392Z,101902.03
2022-12-06T09:45:47.458Z,101890.94
2022-12-06T09:48:36.564Z,101897.03
2022-12-06T09:51:20.858Z,101897.03
2022-12-06T09:54:07.510Z,101884.75
2022-12-06T09:56:45.505Z,101891.81
2022-12-06T09:59:22.875Z,101894.53
2022-12-06T10:02:18.572Z,101895.53
2022-12-06T10:05:01.384Z,101879.16
2022-12-06T10:07:41.594Z,101877.75
2022-12-06T10:10:23.480Z,101881.38
2022-12-06T10:13:09.612Z,101877.50
2022-12-06T10:15:54.765Z,101873.34
2022-12-06T10:18:37.771Z,101870.03
2022-12-06T10:21:19.363Z,101872.97
2022-12-06T10:24:03.243Z,101873.16
2022-12-06T10:26:42.007Z,101868.13
2022-12-06T10:29:27.539Z,101856.28
2022-12-06T10:32:01.433Z,101861.94
2022-12-06T10:34:48.894Z,101864.03
2022-12-06T10:37:34.284Z,101856.50
2022-12-06T10:40:11.039Z,101846.09
2022-12-06T10:42:46.109Z,101847.22
2022-12-06T10:45:41.578Z,101851.03
2022-12-06T10:48:19.453Z,101844.22
2022-12-06T10:50:53.905Z,101846.13
2022-12-06T10:53:26.583Z,101840.19
2022-12-06T10:56:01.472Z,101833.34
2022-12-06T10:58:37.668Z,101836.84
2022-12-06T11:01:15.188Z,101838.66
2022-12-06T11:03:47.609Z,101833.53
2022-12-06T11:06:31.507Z,101836.22
2022-12-06T11:09:08.260Z,101825.97
2022-12-06T11:11:41.891Z,101828.78
2022-12-06T11:14:21.839Z,101828.06
2022-12-06T11:16:58.110Z,101818.63
2022-12-06T11:19:35.232Z,101827.56
2022-12-06T11:22:15.366Z,101825.13
2022-12-06T11:24:54.089Z,101818.38
2022-12-06T11:27:32.191Z,101820.38
2022-12-06T11:30:03.006Z,101812.72
2022-12-06T11:32:35.632Z,101815.53
2022-12-06T11:35:05.419Z,101805.25
2022-12-06T11:37:42.872Z,101810.66
2022-12-06T11:40:23.467Z,101805.63
2022-12-06T11:42:53.288Z,101810.84
2022-12-06T11:45:28.348Z,101799.47
2022-12-06T11:48:03.017Z,101807.44
2022-12-06T11:50:35.875Z,101805.81
2022-12-06T11:53:09.560Z,101800.59
2022-12-06T11:55:45.191Z,101795.53
2022-12-06T11:58:21.506Z,101793.94
2022-12-06T12:01:04.375Z,101793.09
2022-12-06T12:03:38.826Z,101792.31
2022-12-06T12:06:19.329Z,101788.88
2022-12-06T12:08:58.628Z,101791.66
2022-12-06T12:11:31.057Z,101789.03
2022-12-06T12:14:04.907Z,101788.34
2022-12-06T12:16:38.870Z,101785.81
2022-12-06T12:19:31.262Z,101781.47
2022-12-06T12:22:03.064Z,101782.38
2022-12-06T12:27:49.787Z,101771.47
2022-12-06T12:30:35.545Z,101773.66
2022-12-06T12:33:23.560Z,101772.91
2022-12-06T12:35:58.663Z,101760.84
2022-12-06T12:38:43.723Z,101768.03
2022-12-06T12:41:35.392Z,101755.88
2022-12-06T12:44:35.871Z,101762.91
2022-12-06T12:46:59.752Z,101753.44
2022-12-06T12:49:32.668Z,101745.75
2022-12-06T12:52:23.927Z,101747.75
2022-12-06T12:55:02.754Z,101755.78
2022-12-06T12:57:32.899Z,101763.81
2022-12-06T13:00:03.180Z,101750.69
2022-12-06T13:02:34.633Z,101750.81
2022-12-06T13:08:08.135Z,101737.72
2022-12-06T13:10:40.508Z,101739.41
2022-12-06T13:13:18.974Z,101730.75
2022-12-06T13:15:50.707Z,101736.06
2022-12-06T13:18:23.831Z,101737.03
2022-12-06T13:20:56.149Z,101732.72
2022-12-06T13:23:31.701Z,101725.66
2022-12-06T13:26:06.861Z,101732.72
2022-12-06T13:28:46.031Z,101729.28
2022-12-06T13:31:21.270Z,101725.84
2022-12-06T13:33:55.908Z,101721.50
2022-12-06T13:36:28.142Z,101719.69
2022-12-06T13:39:00.481Z,101721.50
2022-12-06T13:42:08.438Z,101714.63
2022-12-06T13:44:45.508Z,101720.78
2022-12-06T13:47:41.388Z,101716.47
2022-12-06T13:50:41.094Z,101719.16
2022-12-06T13:53:10.836Z,101719.06
2022-12-06T13:56:02.256Z,101726.22
2022-12-06T13:58:44.303Z,101725.47
2022-12-06T14:01:40.951Z,101720.31
2022-12-06T14:04:38.036Z,101722.19
2022-12-06T14:09:46.026Z,101719.84
2022-12-06T14:12:24.764Z,101718.97
2022-12-06T14:14:59.584Z,101718.13
2022-12-06T14:18:01.632Z,101713.88
2022-12-06T14:20:31.924Z,101720.13
2022-12-06T14:23:02.366Z,101715.78
2022-12-06T14:25:33.241Z,101713.09
2022-12-06T14:28:14.635Z,101711.34
2022-12-06T14:30:46.277Z,101710.47
2022-12-06T14:33:22.339Z,101713.97
2022-12-06T14:35:54.896Z,101707.75
2022-12-06T14:38:26.281Z,101712.97
2022-12-06T14:41:08.815Z,101707.66
2022-12-06T14:43:42.424Z,101697.81
2022-12-06T14:46:15.722Z,101701.97
2022-12-06T14:48:59.358Z,101701.00
2022-12-06T14:51:36.975Z,101696.66
2022-12-06T14:54:20.531Z,101701.97
2022-12-06T14:56:50.885Z,101702.78
2022-12-06T15:00:10.867Z,101702.91
2022-12-06T15:02:25.869Z,101699.34
2022-12-06T15:04:55.594Z,101696.72
2022-12-06T15:07:43.071Z,101704.69
2022-12-06T15:10:23.043Z,101700.34
2022-12-06T15:12:56.982Z,101692.47
2022-12-06T15:15:43.580Z,101687.41
2022-12-06T15:18:27.073Z,101678.75
2022-12-06T15:20:57.328Z,101678.75
2022-12-06T15:23:39.309Z,101676.28
2022-12-06T15:26:10.940Z,101678.09
2022-12-06T15:28:40.653Z,101678.09
2022-12-06T15:31:20.381Z,101677.28
2022-12-06T15:33:50.653Z,101676.47
2022-12-06T15:36:22.879Z,101667.78
2022-12-06T15:38:53.136Z,101667.78
2022-12-06T15:41:24.455Z,101666.97
2022-12-06T15:43:54.636Z,101670.47
2022-12-06T15:46:29.605Z,101673.09
2022-12-06T15:48:59.619Z,101663.44
2022-12-06T15:51:31.090Z,101668.69
2022-12-06T15:54:02.992Z,101670.41
2022-12-06T15:56:33.759Z,101670.41
2022-12-06T15:59:03.630Z,101665.97
2022-12-06T16:01:44.686Z,101666.88
2022-12-06T16:04:18.174Z,101672.84
2022-12-06T16:06:48.819Z,101668.44
2022-12-06T16:09:20.968Z,101669.25
2022-12-06T16:11:51.330Z,101669.25
2022-12-06T16:14:21.080Z,101662.19
2022-12-06T16:16:53.664Z,101659.50
2022-12-06T16:19:23.547Z,101655.88
2022-12-06T16:21:55.356Z,101651.38
2022-12-06T16:24:22.596Z,101647.78
2022-12-06T16:26:52.308Z,101638.84
2022-12-06T16:29:25.252Z,101648.41
2022-12-06T16:31:57.795Z,101650.94
2022-12-06T16:34:28.961Z,101649.22
2022-12-06T16:37:01.714Z,101657.88
2022-12-06T16:39:33.649Z,101654.31
2022-12-06T16:42:04.072Z,101652.47
2022-12-06T16:44:33.982Z,101651.47
2022-12-06T16:47:10.636Z,101651.47
2022-12-06T16:49:47.384Z,101648.69
2022-12-06T16:52:19.101Z,101646.81
2022-12-06T16:54:48.795Z,101650.25
2022-12-06T16:57:19.696Z,101644.03
2022-12-06T16:59:49.622Z,101641.28
2022-12-06T17:02:29.323Z,101633.28
2022-12-06T17:05:01.346Z,101640.13
2022-12-06T17:07:31.820Z,101624.25
2022-12-06T17:10:01.737Z,101631.22
2022-12-06T17:12:31.587Z,101628.50
2022-12-06T17:15:03.003Z,101624.09
2022-12-06T17:17:35.844Z,101630.94
2022-12-06T17:20:05.592Z,101634.41
2022-12-06T17:22:35.404Z,101630.78
2022-12-06T17:25:05.330Z,101633.22
2022-12-06T17:27:37.188Z,101631.34
2022-12-06T17:30:14.320Z,101634.84
2022-12-06T17:32:48.050Z,101634.75
2022-12-06T17:35:18.056Z,101633.75
2022-12-06T17:37:47.791Z,101632.78
2022-12-06T17:40:17.919Z,101636.84
2022-12-06T17:43:00.016Z,101629.72
2022-12-06T17:45:30.172Z,101627.91
2022-12-06T17:48:02.583Z,101626.00
2022-12-06T17:50:32.307Z,101614.47
2022-12-06T17:53:02.075Z,101610.13
2022-12-06T17:55:31.787Z,101612.84
2022-12-06T17:58:02.712Z,101609.41
2022-12-06T18:00:32.449Z,101609.41
2022-12-06T18:03:04.797Z,101618.09
2022-12-06T18:05:34.569Z,101618.09
2022-12-06T18:08:04.354Z,101618.97
2022-12-06T18:10:34.130Z,101621.59
2022-12-06T18:13:05.465Z,101629.44
2022-12-06T18:15:43.184Z,101628.56
2022-12-06T18:18:15.552Z,101631.06
2022-12-06T18:20:45.608Z,101632.63
2022-12-06T18:23:15.328Z,101633.41
2022-12-06T18:25:45.654Z,101632.34
2022-12-06T18:28:15.376Z,101634.75
2022-12-06T18:30:45.063Z,101630.34
2022-12-06T18:33:20.701Z,101631.69
2022-12-06T18:35:53.892Z,101635.84
2022-12-06T18:38:23.625Z,101633.84
2022-12-06T18:40:53.306Z,101637.19
2022-12-06T18:43:23.008Z,101640.53
2022-12-06T18:46:00.716Z,101633.63
2022-12-06T18:48:33.587Z,101634.50
2022-12-06T18:51:07.779Z,101641.63
2022-12-06T18:53:37.847Z,101626.72
2022-12-06T18:56:10.916Z,101629.34
2022-12-06T18:58:40.755Z,101621.50
2022-12-06T19:01:14.673Z,101626.72
2022-12-06T19:03:48.094Z,101621.50
2022-12-06T19:06:20.137Z,101611.84
2022-12-06T19:08:49.832Z,101619.72
2022-12-06T19:11:22.789Z,101615.28
2022-12-06T19:13:55.231Z,101620.44
2022-12-06T19:16:27.001Z,101619.44
2022-12-06T19:19:04.155Z,101615.75
2022-12-06T19:21:35.873Z,101626.00
2022-12-06T19:24:05.691Z,101614.28
2022-12-06T19:26:35.786Z,101618.34
2022-12-06T19:29:06.551Z,101613.72
2022-12-06T19:31:36.553Z,101613.34
2022-12-06T19:34:09.011Z,101619.47
2022-12-06T19:36:38.777Z,101608.84
2022-12-06T19:39:09.326Z,101615.59
2022-12-06T19:41:59.094Z,101621.63
2022-12-06T19:44:26.716Z,101618.00
2022-12-06T19:46:56.655Z,101623.97
2022-12-06T19:49:29.891Z,101622.16
2022-12-06T19:51:59.666Z,101616.94
2022-12-06T19:54:31.598Z,101609.09
2022-12-06T19:57:02.996Z,101613.31
2022-12-06T19:59:35.036Z,101603.59
2022-12-06T20:02:05.967Z,101606.81
2022-12-06T20:04:40.743Z,101604.00
2022-12-06T20:07:10.982Z,101594.28
2022-12-06T20:09:40.906Z,101593.97
2022-12-06T20:12:10.872Z,101592.91
2022-12-06T20:14:43.071Z,101583.88
2022-12-06T20:17:15.415Z,101591.50
2022-12-06T20:19:49.295Z,101579.16
2022-12-06T20:22:22.247Z,101586.81
2022-12-06T20:24:51.954Z,101593.56
2022-12-06T20:27:41.675Z,101607.53
2022-12-06T20:30:12.815Z,101603.91
2022-12-06T20:32:42.535Z,101587.22
2022-12-06T20:35:14.979Z,101596.78
2022-12-06T20:37:45.025Z,101583.63
2022-12-06T20:40:15.902Z,101582.72
2022-12-06T20:42:45.949Z,101585.25
2022-12-06T20:45:18.251Z,101584.34
2022-12-06T20:47:52.022Z,101589.56
2022-12-06T20:50:25.047Z,101580.72
2022-12-06T20:52:54.775Z,101580.72
2022-12-06T20:55:24.455Z,101572.91
2022-12-06T20:57:54.157Z,101577.31
2022-12-06T21:00:25.056Z,101581.81
2022-12-06T21:02:54.913Z,101578.59
2022-12-06T21:05:27.388Z,101580.50
2022-12-06T21:07:58.309Z,101574.28
2022-12-06T21:10:28.188Z,101574.97
2022-12-06T21:13:00.410Z,101577.47
2022-12-06T21:15:34.199Z,101576.53
2022-12-06T21:18:03.989Z,101584.25
2022-12-06T21:20:40.322Z,101575.31
2022-12-06T21:23:10.173Z,101566.31
2022-12-06T21:25:40.156Z,101567.91
2022-12-06T21:28:09.892Z,101561.78
2022-12-06T21:30:39.648Z,101560.16
2022-12-06T21:33:09.607Z,101569.09
2022-12-06T21:35:42.269Z,101570.09
2022-12-06T21:38:12.010Z,101567.50
2022-12-06T21:40:41.820Z,101561.44
2022-12-06T21:43:11.725Z,101567.50
2022-12-06T21:45:43.034Z,101563.06
2022-12-06T21:48:12.756Z,101570.00
2022-12-06T21:50:45.094Z,101570.88
2022-12-06T21:53:14.790Z,101571.91
2022-12-06T21:55:44.483Z,101573.69
2022-12-06T21:58:14.269Z,101582.16
2022-12-06T22:00:43.992Z,101575.75
2022-12-06T22:03:17.794Z,101577.94
2022-12-06T22:05:54.911Z,101578.78
2022-12-06T22:08:24.715Z,101577.75
2022-12-06T22:10:55.306Z,101575.75
2022-12-06T22:13:25.024Z,101575.75
2022-12-06T22:15:54.789Z,101579.56
2022-12-06T22:18:24.524Z,101590.22
2022-12-06T22:21:04.936Z,101579.25
2022-12-06T22:23:35.217Z,101580.16
2022-12-06T22:26:09.801Z,101579.44
2022-12-06T22:28:39.712Z,101582.34
2022-12-06T22:31:14.247Z,101578.13
2022-12-06T22:33:44.266Z,101589.56
2022-12-06T22:36:17.706Z,101582.72
2022-12-06T22:38:51.346Z,101584.63
2022-12-06T22:41:22.663Z,101584.72
2022-12-06T22:43:53.861Z,101583.13
2022-12-06T22:46:26.312Z,101582.09
2022-12-06T22:48:56.288Z,101582.00
2022-12-06T22:51:30.363Z,101577.47
2022-12-06T22:54:01.931Z,101577.31
2022-12-06T22:56:33.295Z,101579.84
2022-12-06T22:59:04.074Z,101578.00
2022-12-06T23:01:36.181Z,101575.31
2022-12-06T23:04:07.956Z,101574.41
2022-12-06T23:06:42.192Z,101571.91
2022-12-06T23:09:15.938Z,101576.22
2022-12-06T23:11:46.159Z,101583.06
2022-12-06T23:14:15.886Z,101581.03
2022-12-06T23:16:46.303Z,101574.13
2022-12-06T23:19:16.096Z,101568.09
2022-12-06T23:21:48.477Z,101577.81
2022-12-06T23:24:18.412Z,101566.47
2022-12-06T23:26:54.526Z,101569.00
2022-12-06T23:29:26.123Z,101572.31
2022-12-06T23:31:55.881Z,101558.25
2022-12-06T23:34:27.488Z,101556.75
2022-12-06T23:37:00.074Z,101557.81
2022-12-06T23:39:29.788Z,101558.13
2022-12-06T23:41:59.522Z,101553.91
2022-12-06T23:44:29.340Z,101557.50
2022-12-06T23:46:59.044Z,101562.03
2022-12-06T23:49:28.879Z,101552.47
2022-12-06T23:52:01.199Z,101551.66
2022-12-06T23:54:30.999Z,101553.56
2022-12-06T23:57:00.698Z,101549.22
2022-12-06T23:59:30.392Z,101557.16
